Time;durP1;ratioP1;P1;durP2;ratioP2;P2;SDS_P1;SDS_P2;PMS_P1;PMS_P2;Temp;Humidity;BMP_temperature;BMP_pressure;BME280_temperature;BME280_humidity;BME280_pressure;Samples;Min_cycle;Max_cycle;Signal;HPM_P1;HPM_P2
2022/03/24 00:04:36;;;;;;;8.83;7.00;;;12.30;30.40;;;13.78;27.68;99761.22;4942187;28;115421;-74
2022/03/24 00:10:45;;;;;;;9.27;7.80;;;11.90;30.40;;;13.70;27.85;99765.53;4941644;28;126497;-75
2022/03/24 01:33:39;;;;;;;10.60;7.67;;;11.80;34.00;;;12.69;30.24;99723.88;4964051;28;115429;-76
2022/03/24 01:39:48;;;;;;;11.50;8.67;;;10.20;32.80;;;12.53;30.05;99717.75;4963440;28;125172;-75
2022/03/24 01:45:57;;;;;;;10.33;7.90;;;12.10;34.60;;;12.46;29.95;99717.31;4963822;28;115306;-75
2022/03/24 01:52:10;;;;;;;10.30;7.77;;;10.00;32.90;;;12.40;30.40;99718.53;4963352;28;125212;-75
2022/03/24 01:58:22;;;;;;;10.27;8.60;;;11.60;34.60;;;12.35;30.57;99716.66;4962935;28;116323;-75
2022/03/24 02:04:35;;;;;;;9.10;7.27;;;11.70;34.90;;;12.26;30.52;99705.44;4962951;28;125247;-75
2022/03/24 05:41:24;;;;;;;16.37;11.73;;;9.20;41.40;;;9.71;35.14;99756.66;6053480;23;99885;31
2022/03/24 05:47:53;;;;;;;17.30;13.20;;;7.10;40.30;;;9.45;36.31;99761.44;4940980;28;115304;-75
2022/03/24 05:54:04;;;;;;;17.33;10.97;;;8.60;42.20;;;9.39;36.25;99761.75;4943885;28;125369;-75
2022/03/24 05:57:28;;;;;;;16.20;11.50;;;8.10;42.20;;;9.38;36.27;99760.94;4943134;28;124463;-78
2022/03/24 06:03:38;;;;;;;15.87;11.60;;;8.60;42.60;;;9.37;36.39;99767.53;4943659;28;115923;-84
2022/03/24 06:09:49;;;;;;;15.90;10.20;;;7.70;42.10;;;9.37;36.63;99775.81;4942814;28;124815;-89
2022/03/24 06:20:53;;;;;;;19.47;12.23;;;8.80;43.80;;;9.45;36.98;99777.19;5711527;22;98361;-76
2022/03/24 06:27:02;;;;;;;17.20;9.13;;;7.10;41.90;;;9.63;36.43;99775.75;4962983;28;115023;-77
2022/03/24 06:33:11;;;;;;;16.10;10.70;;;8.40;42.90;;;9.79;36.67;99776.50;4962293;28;124874;-76
2022/03/24 06:39:21;;;;;;;14.27;10.10;;;7.60;42.50;;;9.96;36.42;99774.19;4962342;28;114924;-78
2022/03/24 06:45:32;;;;;;;14.00;10.60;;;7.80;42.40;;;10.20;36.06;99773.50;4962139;28;124840;-77
2022/03/24 06:47:59;;;;;;;21.77;10.40;;;8.30;42.80;;;10.27;36.18;99771.25;4962329;28;114871;-77
2022/03/24 06:54:10;;;;;;;19.43;11.07;;;9.40;43.20;;;10.41;36.24;99763.19;4962508;28;125083;-75
2022/03/24 07:00:19;;;;;;;18.80;11.67;;;8.80;42.60;;;10.54;35.86;99779.09;4962164;28;116025;-86
2022/03/24 07:06:28;;;;;;;18.87;12.00;;;9.80;43.20;;;10.68;35.92;99776.50;4939389;28;126506;-79
2022/03/24 07:23:01;;;;;;;19.30;11.43;;;10.20;42.60;;;11.11;35.20;99773.91;5586870;23;98475;-90
2022/03/24 07:26:26;;;;;;;14.90;10.77;;;11.20;42.90;;;11.23;35.36;99777.06;4936456;28;113746;-90
2022/03/24 07:32:34;;;;;;;21.17;12.33;;;10.50;41.90;;;11.41;34.93;99781.88;4925306;28;124323;-90
2022/03/24 07:35:38;;;;;;;15.27;11.07;;;10.60;41.90;;;11.43;35.13;99776.88;4922154;28;112728;-89
2022/03/24 07:38:43;;;;;;;14.83;10.60;;;10.70;41.70;;;11.51;35.11;99778.16;4930952;28;114356;-91
2022/03/24 07:44:51;;;;;;;17.50;11.73;;;10.80;41.60;;;11.66;35.09;99782.69;4956035;28;124330;-90
2022/03/24 07:47:20;;;;;;;14.53;10.53;;;10.90;41.50;;;11.74;34.98;99776.53;4917938;28;112341;-90
2022/03/24 07:50:27;;;;;;;20.47;10.77;;;11.00;41.50;;;11.85;34.74;99772.50;4934937;28;113855;-91
2022/03/24 07:52:53;;;;;;;15.33;11.20;;;11.10;41.50;;;11.93;34.32;99788.47;4947372;28;123524;-90
2022/03/24 07:59:04;;;;;;;18.80;11.90;;;11.30;41.50;;;12.13;34.31;99790.13;4958701;28;116208;-92
2022/03/24 08:01:37;;;;;;;17.30;12.03;;;11.30;41.30;;;12.19;34.21;99785.34;4937462;28;115579;-90
2022/03/24 08:04:22;;;;;;;20.60;14.10;;;11.50;41.40;;;12.22;34.44;99781.97;4952953;28;124840;-91
2022/03/24 08:07:07;;;;;;;18.03;11.77;;;11.40;41.10;;;12.22;34.29;99776.44;4955273;28;124693;-90
2022/03/24 08:10:30;;;;;;;19.73;12.13;;;11.50;41.10;;;12.26;34.25;99782.22;4961605;28;114902;-92
2022/03/24 08:13:18;;;;;;;20.97;13.40;;;11.50;41.00;;;12.26;34.14;99788.56;4967581;28;113227;-92
2022/03/24 08:16:06;;;;;;;20.97;13.53;;;11.60;41.10;;;12.31;34.42;99787.69;4946468;28;123150;-90
2022/03/24 08:18:34;;;;;;;21.63;14.10;;;11.60;41.10;;;12.38;34.33;99786.19;4944290;28;123663;-89
2022/03/24 08:21:23;;;;;;;21.17;12.80;;;11.60;41.40;;;12.48;34.65;99784.38;4960627;28;112436;-92
2022/03/24 08:24:10;;;;;;;19.60;13.20;;;11.80;41.30;;;12.55;34.28;99782.06;4971054;28;113494;-91
2022/03/24 08:26:38;;;;;;;22.87;15.60;;;11.80;41.30;;;12.63;34.18;99781.38;4949750;28;122314;-92
2022/03/24 08:32:46;;;;;;;23.97;16.57;;;12.00;41.20;;;12.74;34.11;99782.84;4972855;28;114588;-92
2022/03/24 08:35:31;;;;;;;22.63;15.83;;;12.00;40.90;;;12.78;33.79;99786.63;4970691;28;113403;-91
2022/03/24 08:37:59;;;;;;;25.10;16.57;;;12.10;40.90;;;12.80;33.98;99780.81;4986076;28;124080;-92
2022/03/24 08:40:28;;;;;;;22.10;16.10;;;12.20;40.80;;;12.82;33.66;99779.38;4954530;28;123533;-91
2022/03/24 08:42:55;;;;;;;21.83;15.57;;;12.20;40.70;;;12.86;33.56;99781.53;4958828;28;114928;-90
2022/03/24 08:45:43;;;;;;;18.90;13.60;;;12.20;40.60;;;12.94;33.68;99784.44;4947523;28;114898;-91
2022/03/24 08:48:29;;;;;;;23.93;15.70;;;12.30;40.60;;;13.00;33.49;99774.91;4967321;28;123929;-92
2022/03/24 08:50:58;;;;;;;26.83;16.93;;;12.30;40.50;;;13.04;33.43;99775.94;4949289;28;123551;-91
2022/03/24 08:53:24;;;;;;;28.77;16.87;;;12.30;40.40;;;13.11;33.43;99781.09;4972823;28;115452;-91
2022/03/24 08:55:55;;;;;;;21.03;15.70;;;12.40;40.40;;;13.17;33.39;99779.88;4969432;28;114361;-91
2022/03/24 08:59:02;;;;;;;19.07;14.07;;;12.50;40.30;;;13.28;33.26;99780.53;4965676;28;124640;-92
2022/03/24 09:05:10;;;;;;;19.50;12.83;;;12.70;40.30;;;13.51;33.07;99784.25;4963247;28;115411;-92
2022/03/24 09:07:38;;;;;;;23.90;14.20;;;12.80;40.20;;;13.56;32.75;99775.81;4970548;28;113232;-92
2022/03/24 09:10:10;;;;;;;21.63;13.23;;;12.80;40.00;;;13.65;33.03;99779.53;4969960;28;124783;-93
2022/03/24 09:12:44;;;;;;;21.27;15.03;;;12.90;39.90;;;13.73;32.52;99780.78;4971588;28;124032;-90
2022/03/24 09:15:16;;;;;;;18.60;13.03;;;13.00;39.90;;;13.80;32.66;99775.59;4967547;28;114123;-93
2022/03/24 09:18:01;;;;;;;17.80;12.43;;;13.10;39.80;;;13.89;32.52;99775.72;4968574;28;113148;-93
2022/03/24 09:20:29;;;;;;;17.87;12.00;;;13.10;39.70;;;13.97;32.66;99780.53;4961142;28;123836;-92
2022/03/24 09:22:55;;;;;;;17.20;11.60;;;13.20;39.70;;;14.08;32.44;99772.81;4963330;28;123139;-92
2022/03/24 09:25:22;;;;;;;21.23;14.90;;;13.30;39.70;;;14.17;32.24;99778.44;4950158;28;114352;-92
2022/03/24 09:28:08;;;;;;;21.40;14.87;;;13.40;39.50;;;14.24;32.05;99773.25;4948844;28;112001;-92
2022/03/24 09:30:37;;;;;;;16.83;12.73;;;13.50;39.40;;;14.30;32.33;99769.25;4963670;28;124040;-92
2022/03/24 09:33:05;;;;;;;21.70;13.47;;;13.50;39.30;;;14.39;31.85;99770.13;4959523;28;123525;-92
2022/03/24 09:35:34;;;;;;;17.80;13.27;;;13.60;39.20;;;14.46;31.79;99773.31;4951904;28;112753;-92
2022/03/24 09:38:02;;;;;;;25.30;15.30;;;15.00;40.20;;;14.52;31.38;99768.44;4974552;28;113293;-92
2022/03/24 09:40:49;;;;;;;22.63;15.53;;;13.80;38.80;;;14.57;31.55;99771.94;4961852;28;123874;-92
2022/03/24 09:43:18;;;;;;;16.83;12.63;;;13.80;38.60;;;14.64;31.35;99760.41;4945958;28;122764;-91
2022/03/24 09:45:47;;;;;;;18.10;12.90;;;13.90;38.60;;;14.75;31.27;99777.66;4967706;28;113464;-91
2022/03/24 09:48:15;;;;;;;26.97;16.47;;;14.00;38.50;;;14.83;30.89;99768.56;4964957;28;114011;-92
2022/03/24 09:50:47;;;;;;;21.37;15.10;;;14.10;38.10;;;14.90;30.94;99768.09;4933282;28;124056;-91
2022/03/24 09:53:15;;;;;;;20.27;14.03;;;14.20;38.00;;;14.97;30.73;99763.72;4945828;28;123227;-91
2022/03/24 09:55:49;;;;;;;21.00;15.10;;;14.20;37.80;;;15.05;30.64;99764.09;4944908;28;113944;-92
2022/03/24 09:58:16;;;;;;;20.47;13.73;;;14.30;37.70;;;15.13;30.48;99766.13;4967308;28;113814;-89
2022/03/24 10:00:44;;;;;;;26.33;16.37;;;14.40;37.60;;;15.21;30.12;99760.59;4965350;28;124075;-93
2022/03/24 10:03:15;;;;;;;24.23;16.53;;;14.50;37.20;;;15.30;29.75;99748.66;4939802;28;121893;-91
2022/03/24 10:06:09;;;;;;;24.10;16.53;;;14.50;36.70;;;15.36;29.77;99747.38;4935075;28;113557;-90
2022/03/24 10:08:54;;;;;;;24.53;16.10;;;14.60;36.60;;;15.45;29.73;99751.03;4955282;28;113993;-92
2022/03/24 10:11:25;;;;;;;21.90;16.03;;;14.70;36.50;;;15.52;29.37;99747.78;4971146;28;124224;-93
2022/03/24 10:13:57;;;;;;;21.77;16.50;;;14.80;36.10;;;15.57;29.07;99747.63;4934508;28;123612;-91
2022/03/24 10:16:34;;;;;;;24.83;17.03;;;14.80;35.80;;;15.64;28.93;99748.81;4944220;28;113339;-92
2022/03/24 10:19:06;;;;;;;22.10;16.10;;;14.90;35.70;;;15.71;28.95;99741.97;4963520;28;113797;-92
2022/03/24 10:21:39;;;;;;;23.00;15.43;;;15.00;35.50;;;15.80;28.76;99748.41;4923333;28;122376;-88
2022/03/24 10:24:14;;;;;;;26.20;18.03;;;15.00;35.20;;;15.86;28.03;99750.69;4918422;28;122997;-81
2022/03/24 10:26:59;;;;;;;21.80;16.37;;;15.20;34.40;;;15.96;28.25;99745.94;4937215;28;113335;-92
2022/03/24 10:29:28;;;;;;;22.77;16.00;;;15.30;34.60;;;16.05;27.78;99746.78;4920049;28;113088;-89
2022/03/24 10:32:02;;;;;;;21.67;17.47;;;15.40;34.00;;;16.16;27.40;99741.72;4934585;28;124694;-88
2022/03/24 10:34:34;;;;;;;23.03;16.00;;;15.40;33.60;;;16.26;27.62;99742.22;4937773;28;122581;-92
2022/03/24 10:37:12;;;;;;;26.93;15.90;;;15.60;33.90;;;16.38;27.65;99746.31;4906011;28;113552;-92
2022/03/24 10:40:02;;;;;;;25.87;17.63;;;15.70;33.80;;;16.48;26.92;99735.66;4914327;28;115042;-93
2022/03/24 10:42:32;;;;;;;25.37;17.70;;;15.80;33.30;;;16.58;26.89;99726.13;4899902;28;124181;-94
2022/03/24 10:45:18;;;;;;;31.70;19.80;;;15.90;32.90;;;16.70;26.81;99728.25;4916302;28;125354;-92
2022/03/24 10:48:00;;;;;;;26.33;17.00;;;16.00;32.80;;;16.83;26.72;99720.88;4914620;28;114185;-94
2022/03/24 10:50:40;;;;;;;23.70;16.60;;;16.10;32.90;;;16.95;26.53;99727.41;4915570;28;113406;-92
2022/03/24 10:53:16;;;;;;;29.20;18.60;;;16.30;32.90;;;17.09;26.49;99727.22;4902049;28;121981;-93
2022/03/24 10:55:52;;;;;;;22.33;16.43;;;16.40;32.50;;;17.21;26.54;99724.53;4916424;28;123282;-92
2022/03/24 10:58:44;;;;;;;20.50;15.00;;;16.50;32.80;;;17.37;26.45;99716.41;4921869;28;114372;-91
2022/03/24 11:02:08;;;;;;;24.40;16.77;;;16.70;32.60;;;17.54;25.93;99715.50;4956013;28;114669;-92
2022/03/24 11:04:35;;;;;;;24.67;17.10;;;16.80;32.40;;;17.70;25.52;99723.31;4954772;28;123248;-91
2022/03/24 11:07:04;;;;;;;24.80;17.20;;;17.00;31.90;;;17.80;25.50;99720.19;4953941;28;124019;-92
2022/03/24 11:09:33;;;;;;;24.67;18.20;;;17.10;31.50;;;17.94;24.84;99717.94;4952827;28;114728;-92
2022/03/24 11:12:36;;;;;;;19.67;15.90;;;17.20;30.70;;;18.06;25.00;99715.22;4952337;28;113156;-91
2022/03/24 11:15:07;;;;;;;21.90;15.43;;;17.40;30.90;;;18.23;24.83;99713.47;4928911;28;123406;-91
2022/03/24 11:17:37;;;;;;;21.87;15.00;;;17.60;31.10;;;18.38;24.74;99710.06;4953506;28;124640;-92
2022/03/24 11:20:06;;;;;;;25.97;17.30;;;17.60;30.70;;;18.49;23.79;99702.88;4956057;28;114298;-93
2022/03/24 11:23:06;;;;;;;20.13;14.70;;;17.80;29.80;;;18.66;23.65;99703.84;4942228;28;112421;-92
2022/03/24 11:25:34;;;;;;;24.23;17.83;;;17.90;29.70;;;18.78;23.39;99695.53;4956154;28;124036;-94
2022/03/24 11:28:11;;;;;;;22.13;17.10;;;18.10;29.30;;;18.90;23.35;99700.34;4956558;28;124453;-93
2022/03/24 11:30:38;;;;;;;19.20;15.93;;;18.20;29.40;;;19.05;23.43;99690.44;4958362;28;115421;-92
2022/03/24 11:33:07;;;;;;;18.93;14.90;;;18.30;29.40;;;19.18;23.33;99694.91;4956073;28;115073;-92
2022/03/24 11:35:35;;;;;;;21.03;14.93;;;18.50;29.30;;;19.33;23.05;99690.59;4939108;28;122110;-92
2022/03/24 11:38:04;;;;;;;20.63;15.80;;;18.60;29.30;;;19.45;22.79;99689.78;4937903;28;123283;-93
2022/03/24 11:40:33;;;;;;;20.20;14.60;;;18.70;28.70;;;19.55;22.50;99680.91;4939709;28;114285;-91
2022/03/24 11:43:18;;;;;;;17.57;14.53;;;18.80;28.50;;;19.65;22.23;99680.44;4925369;28;113942;-93
2022/03/24 11:45:59;;;;;;;17.20;13.73;;;19.00;28.30;;;19.79;22.08;99675.31;4946080;28;123673;-92
2022/03/24 11:48:38;;;;;;;21.00;16.30;;;19.10;28.00;;;19.95;21.35;99668.97;4952379;28;123749;-91
2022/03/24 11:51:40;;;;;;;17.17;12.73;;;19.20;27.30;;;20.08;21.24;99670.59;4953260;28;114744;-92
2022/03/24 11:54:08;;;;;;;16.00;12.73;;;19.40;27.30;;;20.25;20.80;99667.47;4859942;28;112388;-91
2022/03/24 11:56:35;;;;;;;14.70;11.20;;;19.50;26.70;;;20.38;20.88;99670.25;4875232;28;124149;-92
2022/03/24 11:59:02;;;;;;;20.03;13.60;;;19.60;26.90;;;20.48;20.66;99669.75;4860179;28;124146;-91
2022/03/24 12:01:32;;;;;;;20.30;14.97;;;19.70;26.60;;;20.55;19.36;99655.91;4876062;28;113726;-92
2022/03/24 12:04:01;;;;;;;18.20;13.90;;;19.80;24.80;;;20.61;19.96;99648.06;4876911;28;114466;-93
2022/03/24 12:10:13;;;;;;;14.73;11.67;;;20.10;26.20;;;21.00;19.53;99642.69;4884629;28;124272;-90
2022/03/24 12:13:19;;;;;;;14.27;11.10;;;20.20;25.90;;;21.16;19.92;99649.09;4890967;28;114646;-92
2022/03/24 12:16:18;;;;;;;12.70;11.00;;;20.40;25.70;;;21.30;19.44;99635.41;4887283;28;113685;-92
2022/03/24 12:18:45;;;;;;;12.47;9.50;;;20.60;25.20;;;21.49;19.27;99634.69;4865252;28;123764;-93
2022/03/24 12:21:27;;;;;;;16.70;12.13;;;20.70;25.50;;;21.64;18.97;99632.22;4876703;28;123805;-92
2022/03/24 12:24:09;;;;;;;14.30;11.30;;;20.90;25.00;;;21.74;19.37;99634.47;4865097;28;114129;-93
2022/03/24 12:26:47;;;;;;;13.80;10.03;;;21.00;25.20;;;21.86;19.21;99623.06;4879520;28;114480;-93
2022/03/24 12:29:22;;;;;;;17.90;13.20;;;21.10;25.20;;;21.94;18.41;99619.22;4876300;28;123184;-92
2022/03/24 12:32:06;;;;;;;15.60;12.43;;;21.20;24.60;;;22.03;17.58;99614.22;4934212;28;123631;-93
2022/03/24 12:34:46;;;;;;;17.60;14.30;;;21.30;23.90;;;22.03;17.25;99617.03;4956685;28;114639;-91
2022/03/24 12:37:31;;;;;;;14.37;12.03;;;21.40;22.20;;;22.06;17.48;99613.47;4952669;28;112136;-92
2022/03/24 12:40:10;;;;;;;12.63;11.33;;;21.50;22.70;;;22.16;17.47;99608.41;4945297;28;122920;-92
2022/03/24 12:42:52;;;;;;;12.03;10.53;;;21.60;23.00;;;22.29;17.66;99607.13;4935727;28;123931;-93
2022/03/24 12:45:31;;;;;;;12.00;10.70;;;21.20;23.20;;;22.45;17.71;99598.56;4905061;28;113618;-93
2022/03/24 12:48:08;;;;;;;13.57;11.13;;;21.80;23.20;;;22.63;17.21;99601.75;4913706;28;114207;-93
2022/03/24 12:50:37;;;;;;;11.53;8.80;;;21.90;23.30;;;22.79;17.61;99607.25;4897234;28;123102;-92
2022/03/24 12:53:07;;;;;;;11.03;8.93;;;22.10;23.40;;;22.97;17.40;99588.69;4879254;28;122851;-90
2022/03/24 12:55:38;;;;;;;9.37;7.70;;;22.20;23.30;;;23.13;17.49;99591.34;4907197;28;114387;-90
2022/03/24 12:58:12;;;;;;;10.40;8.73;;;22.40;23.50;;;23.25;17.33;99585.53;4903450;28;113186;-93
2022/03/24 13:00:45;;;;;;;11.70;10.03;;;22.50;23.50;;;23.39;17.22;99584.91;4912857;28;123493;-94
2022/03/24 13:03:12;;;;;;;11.90;9.50;;;22.60;23.30;;;23.51;17.14;99583.91;4912230;28;123752;-94
2022/03/24 13:05:44;;;;;;;12.60;9.50;;;22.80;23.30;;;23.65;16.96;99584.09;4911293;28;114804;-93
2022/03/24 13:08:14;;;;;;;10.87;9.20;;;22.90;23.00;;;23.76;16.84;99581.47;4906365;28;114086;-93
2022/03/24 13:10:55;;;;;;;12.60;9.20;;;23.00;23.10;;;23.89;16.71;99582.03;4911982;28;124382;-92
2022/03/24 13:13:22;;;;;;;8.37;7.57;;;23.20;23.00;;;24.02;16.88;99575.75;4893521;28;123841;-92
2022/03/24 13:15:49;;;;;;;10.73;8.50;;;23.30;23.30;;;24.18;16.49;99581.19;4917065;28;113706;-89
2022/03/24 13:18:16;;;;;;;12.93;9.47;;;23.40;22.70;;;24.31;15.92;99573.25;4949675;28;115596;-92
2022/03/24 13:20:50;;;;;;;10.83;9.30;;;23.50;22.00;;;24.39;16.00;99568.50;4950490;28;124155;-91
2022/03/24 13:23:18;;;;;;;10.97;8.93;;;23.70;21.90;;;24.45;15.78;99559.34;4952889;28;122849;-92
2022/03/24 13:25:50;;;;;;;9.20;8.20;;;23.70;21.90;;;24.55;15.83;99565.47;4954784;28;114071;-93
2022/03/24 13:28:18;;;;;;;9.30;7.93;;;23.80;21.80;;;24.72;15.75;99558.34;4935878;28;113274;-90
2022/03/24 13:30:45;;;;;;;11.63;10.40;;;24.00;22.10;;;24.80;15.42;99560.06;4937319;28;125183;-93
2022/03/24 13:33:14;;;;;;;13.43;10.80;;;24.00;21.10;;;24.79;15.23;99553.59;4937244;28;123651;-91
2022/03/24 13:35:47;;;;;;;10.73;9.60;;;24.10;21.00;;;24.84;15.26;99555.25;4922805;28;114337;-90
2022/03/24 13:38:20;;;;;;;9.50;8.50;;;24.20;21.10;;;24.91;15.49;99549.66;4949145;28;114083;-91
2022/03/24 13:40:51;;;;;;;10.77;8.93;;;24.20;21.20;;;25.04;15.38;99551.00;4950541;28;124119;-92
2022/03/24 13:43:18;;;;;;;10.10;8.63;;;24.30;21.20;;;25.12;15.04;99543.38;4952742;28;123872;-90
2022/03/24 13:45:48;;;;;;;8.20;6.97;;;24.40;21.10;;;25.20;15.27;99545.09;4933961;28;114549;-89
2022/03/24 13:48:19;;;;;;;6.23;5.57;;;24.50;21.50;;;25.35;15.21;99543.16;4953312;28;114082;-91
2022/03/24 13:51:00;;;;;;;10.80;8.63;;;24.60;21.80;;;25.46;15.13;99535.53;4934211;28;124079;-91
2022/03/24 13:53:30;;;;;;;8.30;7.43;;;24.70;21.20;;;25.57;15.24;99530.72;4953725;28;123542;-91
2022/03/24 13:56:08;;;;;;;8.00;7.00;;;24.90;21.40;;;25.73;15.01;99536.06;4951661;28;115079;-90
2022/03/24 13:58:36;;;;;;;7.67;6.97;;;25.00;21.50;;;25.95;15.29;99522.88;4953535;28;113817;-92
2022/03/24 14:01:15;;;;;;;8.13;6.23;;;25.10;21.40;;;26.13;15.01;99528.56;4917425;28;123944;-90
2022/03/24 14:03:44;;;;;;;8.97;8.00;;;25.30;21.40;;;26.28;14.56;99518.09;4916515;28;123904;-91
2022/03/24 14:06:13;;;;;;;9.53;7.17;;;25.50;21.00;;;26.47;14.46;99524.63;4934353;28;115108;-92
2022/03/24 14:08:52;;;;;;;8.83;7.30;;;25.70;21.10;;;26.55;14.72;99526.28;4935875;28;115085;-89
2022/03/24 14:11:26;;;;;;;11.83;9.63;;;25.80;20.80;;;26.62;13.98;99514.94;4950282;28;123817;-88
2022/03/24 14:13:55;;;;;;;9.47;7.03;;;25.90;20.00;;;26.62;14.62;99520.59;4924943;28;122250;-89
2022/03/24 14:16:37;;;;;;;6.83;6.10;;;26.00;20.60;;;26.69;14.21;99505.63;4938476;28;113617;-90
2022/03/24 14:19:08;;;;;;;9.97;8.60;;;26.10;20.60;;;26.78;13.73;99506.03;4956304;28;113051;-90
2022/03/24 14:22:05;;;;;;;8.97;8.07;;;26.10;20.10;;;26.78;14.13;99501.16;4950254;28;124145;-91
2022/03/24 14:24:35;;;;;;;6.33;5.53;;;26.20;20.00;;;26.81;14.40;99494.72;4941414;28;122732;-90
2022/03/24 14:27:08;;;;;;;5.57;5.07;;;26.20;20.30;;;26.92;14.53;99496.72;4954742;28;114913;-92
2022/03/24 14:29:39;;;;;;;7.17;6.47;;;26.30;20.60;;;27.06;13.84;99496.72;4937919;28;114066;-91
2022/03/24 14:32:21;;;;;;;7.13;6.43;;;26.40;20.30;;;27.13;14.20;99493.03;4951575;28;123420;-91
2022/03/24 14:35:18;;;;;;;5.53;5.03;;;26.50;20.20;;;27.22;13.92;99480.09;4935897;28;123391;-90
2022/03/24 14:37:57;;;;;;;4.50;4.17;;;26.60;20.40;;;27.40;14.26;99479.22;4953332;28;114363;-88
2022/03/24 14:40:29;;;;;;;5.50;4.47;;;26.70;20.40;;;27.57;14.21;99478.38;4950567;28;114528;-89
2022/03/24 14:43:11;;;;;;;3.63;3.33;;;26.80;20.50;;;27.76;14.26;99469.34;4955348;28;124619;-89
2022/03/24 14:45:40;;;;;;;6.17;5.57;;;27.00;20.60;;;27.90;13.49;99470.53;4934935;28;123790;-90
2022/03/24 14:48:09;;;;;;;5.00;4.50;;;27.20;20.10;;;28.02;13.68;99467.22;4956481;28;113879;-89
2022/03/24 14:50:37;;;;;;;6.47;5.87;;;27.30;20.20;;;28.14;13.57;99471.63;4935826;28;112399;-91
2022/03/24 14:53:05;;;;;;;5.20;4.70;;;27.40;19.90;;;28.23;13.37;99471.16;4909088;28;124289;-90
2022/03/24 14:55:32;;;;;;;7.03;6.17;;;27.60;19.90;;;28.28;13.13;99470.72;4933146;28;123996;-90
2022/03/24 14:58:00;;;;;;;8.00;6.30;;;27.60;19.30;;;28.22;12.99;99467.50;4948615;28;113955;-90
2022/03/24 15:00:27;;;;;;;5.13;4.63;;;27.70;19.10;;;28.17;13.27;99465.91;4952890;28;114626;-89
2022/03/24 15:02:54;;;;;;;4.37;3.97;;;27.70;19.20;;;28.21;13.51;99460.22;4936554;28;124542;-90
2022/03/24 15:05:22;;;;;;;9.70;8.07;;;27.70;19.40;;;28.26;12.42;99467.47;4953563;28;123851;-89
2022/03/24 15:07:49;;;;;;;10.00;8.93;;;27.70;17.90;;;28.13;12.52;99448.09;4939260;28;113380;-90
2022/03/24 15:10:16;;;;;;;6.23;5.63;;;27.70;18.00;;;28.05;12.65;99448.53;4956987;28;114093;-88
2022/03/24 15:12:44;;;;;;;10.57;8.30;;;27.60;18.50;;;27.98;11.95;99440.88;4933387;28;123854;-90
2022/03/24 15:17:58;;;;;;;8.53;7.30;;;27.40;17.60;;;27.77;12.33;99448.25;4941781;28;114865;-89
2022/03/24 15:20:28;;;;;;;8.90;8.00;;;27.40;17.80;;;27.78;12.35;99451.91;4943688;28;114786;-89
2022/03/24 15:22:55;;;;;;;14.30;10.30;;;27.30;17.50;;;27.63;11.15;99447.53;4911639;28;123604;-91
2022/03/24 15:25:23;;;;;;;9.57;8.60;;;27.20;16.10;;;27.42;11.67;99443.53;4929582;28;123002;-87
2022/03/24 15:27:49;;;;;;;6.03;5.43;;;27.00;16.70;;;27.37;12.28;99440.31;4903346;28;113415;-90
2022/03/24 15:30:16;;;;;;;8.73;4.83;;;26.90;17.30;;;27.46;12.28;99443.53;4918182;28;113092;-89
2022/03/24 15:32:42;;;;;;;4.23;3.83;;;27.00;17.80;;;27.60;12.72;99437.78;4914854;28;124050;-89
2022/03/24 15:35:09;;;;;;;5.00;4.40;;;27.10;18.10;;;27.74;12.87;99434.88;4932772;28;123083;-89
2022/03/24 15:37:40;;;;;;;4.00;3.60;;;27.20;18.70;;;27.86;12.39;99432.81;4942422;28;114193;-89
2022/03/24 15:40:09;;;;;;;4.63;4.23;;;27.30;18.20;;;27.97;12.59;99425.88;4926155;28;113743;-88
2022/03/24 15:42:38;;;;;;;4.00;3.60;;;27.40;18.20;;;28.08;12.37;99434.31;4904545;28;123381;-87
2022/03/24 15:45:05;;;;;;;4.80;4.30;;;27.50;18.10;;;28.17;12.46;99431.81;4916570;28;123524;-89
2022/03/24 15:47:32;;;;;;;4.53;4.13;;;27.60;18.20;;;28.24;12.22;99435.81;4916048;28;115715;-89
2022/03/24 15:49:59;;;;;;;5.37;4.83;;;27.70;18.00;;;28.26;11.87;99434.19;4918746;28;114749;-88
2022/03/24 15:52:27;;;;;;;5.57;4.37;;;27.70;17.50;;;28.28;12.08;99436.63;4933188;28;124669;-88
2022/03/24 15:54:54;;;;;;;6.70;4.93;;;27.80;17.60;;;28.29;12.40;99432.53;4918554;28;123274;-86
2022/03/24 15:57:21;;;;;;;5.77;3.73;;;27.80;17.50;;;28.31;12.39;99425.22;4916911;28;114307;-89
2022/03/24 15:59:47;;;;;;;5.27;4.47;;;27.80;17.60;;;28.34;11.96;99426.41;4933637;28;113985;-88
2022/03/24 16:02:14;;;;;;;4.37;3.97;;;27.90;17.50;;;28.40;12.11;99427.59;4939523;28;121804;-87
2022/03/24 16:04:40;;;;;;;3.90;3.23;;;28.00;17.70;;;28.49;12.04;99430.78;4914716;28;123988;-89
2022/03/24 16:07:07;;;;;;;5.10;4.60;;;28.00;17.70;;;28.52;11.97;99432.78;4914930;28;113715;-88
2022/03/24 16:09:34;;;;;;;4.33;3.73;;;28.10;17.50;;;28.49;12.18;99430.78;4899383;28;113162;-88
2022/03/24 16:12:00;;;;;;;9.93;7.07;;;28.10;17.60;;;28.45;11.44;99434.88;4911065;28;124077;-88
2022/03/24 16:14:27;;;;;;;6.33;5.73;;;28.10;16.70;;;28.31;11.49;99428.06;4912765;28;124010;-87
2022/03/24 16:16:55;;;;;;;5.90;5.00;;;28.00;16.70;;;28.24;11.97;99433.81;4912809;28;114890;-87
2022/03/24 16:19:22;;;;;;;3.97;3.57;;;27.90;17.00;;;28.29;11.92;99444.75;4895534;28;113603;-89
2022/03/24 16:21:49;;;;;;;4.60;3.97;;;27.90;17.20;;;28.33;12.14;99444.69;4897259;28;124451;-86
2022/03/24 16:24:17;;;;;;;7.77;5.00;;;27.90;17.30;;;28.36;11.95;99443.88;4912859;28;125926;-89
2022/03/24 16:26:43;;;;;;;4.20;3.73;;;28.00;17.30;;;28.34;12.17;99441.41;4915457;28;114703;-87
2022/03/24 16:29:10;;;;;;;4.20;3.80;;;28.00;17.40;;;28.35;11.95;99442.25;4931330;28;114763;-86
2022/03/24 16:31:37;;;;;;;4.53;3.90;;;28.00;17.40;;;28.35;12.00;99443.06;4930392;28;124110;-87
2022/03/24 16:34:03;;;;;;;5.20;4.03;;;28.00;17.40;;;28.36;11.88;99443.88;4914997;28;122614;-88
2022/03/24 16:36:30;;;;;;;3.83;3.43;;;28.00;17.40;;;28.36;12.07;99446.69;4934499;28;116039;-87
2022/03/24 16:38:57;;;;;;;4.20;3.80;;;28.00;17.50;;;28.36;12.19;99447.50;4932664;28;114409;-87
2022/03/24 16:41:24;;;;;;;3.87;3.47;;;28.00;17.50;;;28.37;12.29;99446.31;4928145;28;124794;-89
2022/03/24 16:43:50;;;;;;;3.37;3.03;;;28.00;17.50;;;28.37;12.31;99445.47;4947424;28;123445;-87
2022/03/24 16:46:17;;;;;;;3.87;3.57;;;28.00;17.60;;;28.37;12.22;99442.63;4932267;28;113595;-88
2022/03/24 16:48:43;;;;;;;4.40;3.00;;;28.00;17.60;;;28.35;12.50;99445.09;4914695;28;113419;-86
2022/03/24 16:51:10;;;;;;;3.30;2.80;;;28.00;17.70;;;28.27;12.58;99438.66;4937309;28;123956;-86
2022/03/24 16:53:40;;;;;;;3.50;3.20;;;28.00;17.70;;;28.18;12.66;99450.50;4954220;28;123704;-89
2022/03/24 16:56:06;;;;;;;3.80;3.40;;;27.90;17.60;;;28.07;12.64;99446.88;4960163;28;114224;-88
2022/03/24 16:58:32;;;;;;;4.10;3.70;;;27.80;17.60;;;27.94;12.34;99457.13;4939815;28;112156;-86
2022/03/24 17:00:59;;;;;;;6.40;3.40;;;27.80;17.70;;;27.80;12.37;99451.50;4948603;28;122912;-87
2022/03/24 17:03:25;;;;;;;4.20;3.80;;;27.70;17.70;;;27.65;12.83;99448.72;4950947;28;123851;-88
2022/03/24 17:05:52;;;;;;;5.20;4.20;;;27.50;17.60;;;27.51;12.55;99448.78;4934834;28;114093;-90
2022/03/24 17:08:20;;;;;;;3.50;3.20;;;27.40;17.60;;;27.35;12.89;99459.78;4935062;28;113499;-84
2022/03/24 17:10:46;;;;;;;3.80;3.50;;;27.20;17.70;;;27.22;12.70;99463.06;4935169;28;123176;-90
2022/03/24 17:13:13;;;;;;;4.63;4.17;;;27.10;17.70;;;27.08;12.48;99457.38;4949594;28;123832;-89
2022/03/24 17:15:40;;;;;;;4.40;4.00;;;27.00;17.70;;;26.90;12.96;99468.78;4947992;28;114494;-91
2022/03/24 17:18:07;;;;;;;4.93;4.03;;;26.80;17.60;;;26.69;13.13;99463.91;4949360;28;113953;-91
2022/03/24 17:20:34;;;;;;;4.40;4.00;;;26.60;17.70;;;26.52;13.38;99461.88;4948677;28;124092;-93